Time;durP1;ratioP1;P1;durP2;ratioP2;P2;SDS_P1;SDS_P2;PMS_P1;PMS_P2;Temp;Humidity;BMP_temperature;BMP_pressure;BME280_temperature;BME280_humidity;BME280_pressure;Samples;Min_cycle;Max_cycle;Signal;HPM_P1;HPM_P2
2023/05/24 00:02:06;;;;;;;;;;;9.40;99.90;;;;;;4910029;29;19942;-76
2023/05/24 00:04:32;;;;;;;;;;;9.30;99.90;;;;;;4881848;29;19927;-76
2023/05/24 00:06:58;;;;;;;;;;;9.30;99.90;;;;;;4912880;29;19974;-76
2023/05/24 00:09:23;;;;;;;;;;;9.40;99.90;;;;;;4910553;29;20344;-76
2023/05/24 00:11:49;;;;;;;;;;;9.40;99.90;;;;;;4893393;29;19975;-77
2023/05/24 00:14:15;;;;;;;;;;;9.40;99.90;;;;;;4912302;29;19928;-76
2023/05/24 00:16:40;;;;;;;;;;;9.50;99.90;;;;;;4917661;29;19954;-76
2023/05/24 00:19:06;;;;;;;;;;;9.40;99.90;;;;;;4911245;29;20018;-77
2023/05/24 00:21:34;;;;;;;;;;;9.40;99.90;;;;;;4906050;29;19933;-76
2023/05/24 00:23:59;;;;;;;;;;;9.40;99.90;;;;;;4900889;29;19927;-76
2023/05/24 00:26:25;;;;;;;;;;;9.40;99.90;;;;;;4909961;29;19935;-77
2023/05/24 00:28:51;;;;;;;;;;;9.40;99.90;;;;;;4918858;29;19931;-76
2023/05/24 00:31:16;;;;;;;;;;;9.40;99.90;;;;;;4914784;29;20313;-76
2023/05/24 00:33:42;;;;;;;;;;;9.40;99.90;;;;;;4918455;29;19982;-77
2023/05/24 00:36:08;;;;;;;;;;;9.40;99.90;;;;;;4919969;29;19934;-77
2023/05/24 00:38:33;;;;;;;;;;;9.40;99.90;;;;;;4917080;29;19934;-77
2023/05/24 00:41:00;;;;;;;;;;;9.40;99.90;;;;;;4918350;29;19927;-76
2023/05/24 00:43:25;;;;;;;;;;;9.50;99.90;;;;;;4912894;29;19950;-75
2023/05/24 00:46:07;;;;;;;;;;;9.40;99.90;;;;;;4919701;29;19927;-77
2023/05/24 00:48:33;;;;;;;;;;;9.50;99.90;;;;;;4879552;29;20007;-77
2023/05/24 00:50:59;;;;;;;;;;;9.60;99.90;;;;;;4920195;29;20397;-76
2023/05/24 00:53:25;;;;;;;;;;;9.60;99.90;;;;;;4922642;29;19934;-76
2023/05/24 00:55:50;;;;;;;;;;;9.50;99.90;;;;;;4920254;29;20361;-76
2023/05/24 00:58:16;;;;;;;;;;;9.60;99.90;;;;;;4906913;29;19928;-77
2023/05/24 01:00:42;;;;;;;;;;;9.60;99.90;;;;;;4917919;29;19927;-76
2023/05/24 01:03:09;;;;;;;;;;;9.70;99.90;;;;;;4920337;29;19957;-77
2023/05/24 01:05:34;;;;;;;;;;;9.60;99.90;;;;;;4919692;29;19931;-76
2023/05/24 01:08:09;;;;;;;;;;;9.60;99.90;;;;;;4921756;29;19927;-77
2023/05/24 01:10:56;;;;;;;;;;;9.70;99.90;;;;;;4921991;29;19960;-77
2023/05/24 01:13:30;;;;;;;;;;;9.70;99.90;;;;;;4922060;29;19927;-77
2023/05/24 01:16:04;;;;;;;;;;;9.60;99.90;;;;;;4917439;29;20018;-77
2023/05/24 01:18:30;;;;;;;;;;;9.60;99.90;;;;;;4928190;29;19923;-75
2023/05/24 01:21:11;;;;;;;;;;;9.60;99.90;;;;;;4915137;29;19971;-76
2023/05/24 01:23:46;;;;;;;;;;;9.60;99.90;;;;;;4911522;29;19935;-75
2023/05/24 01:26:20;;;;;;;;;;;9.60;99.90;;;;;;4908399;29;19938;-76
2023/05/24 01:28:49;;;;;;;;;;;9.60;99.90;;;;;;4918187;29;19930;-76
2023/05/24 01:31:15;;;;;;;;;;;9.60;99.90;;;;;;4914732;29;19935;-77
2023/05/24 01:33:42;;;;;;;;;;;9.70;99.90;;;;;;4902493;29;19990;-77
2023/05/24 01:36:07;;;;;;;;;;;9.60;99.90;;;;;;4916354;29;20357;-77
2023/05/24 01:38:33;;;;;;;;;;;9.70;99.90;;;;;;4918206;29;19927;-76
2023/05/24 01:41:03;;;;;;;;;;;9.70;99.90;;;;;;4930722;29;19951;-77
2023/05/24 01:43:36;;;;;;;;;;;9.70;99.90;;;;;;4916830;29;19934;-76
2023/05/24 01:46:02;;;;;;;;;;;9.60;99.90;;;;;;4917147;29;20281;-77
2023/05/24 01:48:38;;;;;;;;;;;9.70;99.90;;;;;;4919627;29;19955;-76
2023/05/24 01:51:10;;;;;;;;;;;9.60;99.90;;;;;;4917639;29;19927;-76
2023/05/24 01:53:40;;;;;;;;;;;9.60;99.90;;;;;;4917301;29;19927;-76
2023/05/24 01:56:05;;;;;;;;;;;9.60;99.90;;;;;;4900132;29;19934;-77
2023/05/24 01:58:32;;;;;;;;;;;9.60;99.90;;;;;;4917076;29;20014;-75
2023/05/24 02:00:58;;;;;;;;;;;9.60;99.90;;;;;;4914379;29;19970;-76
2023/05/24 02:03:24;;;;;;;;;;;9.50;99.90;;;;;;4912086;29;20369;-76
2023/05/24 02:05:50;;;;;;;;;;;9.40;99.90;;;;;;4913806;29;19954;-76
2023/05/24 02:08:15;;;;;;;;;;;9.40;99.90;;;;;;4898166;29;20393;-75
2023/05/24 02:10:41;;;;;;;;;;;9.40;99.90;;;;;;4912367;29;20349;-76
2023/05/24 02:13:06;;;;;;;;;;;9.50;99.90;;;;;;4914503;29;19927;-77
2023/05/24 02:15:34;;;;;;;;;;;9.50;99.90;;;;;;4904200;29;19931;-76
2023/05/24 02:18:00;;;;;;;;;;;9.50;99.90;;;;;;4906432;29;19935;-77
2023/05/24 02:20:27;;;;;;;;;;;9.50;99.90;;;;;;4912994;29;19935;-76
2023/05/24 02:22:52;;;;;;;;;;;9.50;99.90;;;;;;4916076;29;20037;-76
2023/05/24 02:25:18;;;;;;;;;;;9.50;99.90;;;;;;4881505;29;20074;-75
2023/05/24 02:27:45;;;;;;;;;;;9.60;99.90;;;;;;4917251;29;19975;-76
2023/05/24 02:30:11;;;;;;;;;;;9.60;99.90;;;;;;4913109;29;20388;-75
2023/05/24 02:32:37;;;;;;;;;;;9.60;99.90;;;;;;4908338;29;19938;-75
2023/05/24 02:35:03;;;;;;;;;;;9.60;99.90;;;;;;4916046;29;19927;-76
2023/05/24 02:37:28;;;;;;;;;;;9.70;99.90;;;;;;4913939;29;20463;-75
2023/05/24 02:39:54;;;;;;;;;;;9.70;99.90;;;;;;4898473;29;19934;-76
2023/05/24 02:42:19;;;;;;;;;;;9.60;99.90;;;;;;4906504;29;20406;-76
2023/05/24 02:44:51;;;;;;;;;;;9.70;99.90;;;;;;4877776;29;19942;-76
2023/05/24 02:47:17;;;;;;;;;;;9.70;99.90;;;;;;4912687;29;20400;-75
2023/05/24 02:49:42;;;;;;;;;;;9.80;99.90;;;;;;4902836;29;19928;-75
2023/05/24 02:52:08;;;;;;;;;;;9.80;99.90;;;;;;4914224;29;19927;-77
2023/05/24 02:54:33;;;;;;;;;;;9.80;99.90;;;;;;4916494;29;19927;-75
2023/05/24 02:57:00;;;;;;;;;;;9.80;99.90;;;;;;4900216;29;19927;-76
2023/05/24 02:59:25;;;;;;;;;;;9.90;99.90;;;;;;4916190;29;19927;-75
2023/05/24 03:01:51;;;;;;;;;;;9.90;99.90;;;;;;4914814;29;19998;-75
2023/05/24 03:04:17;;;;;;;;;;;9.90;99.90;;;;;;4912918;29;20288;-75
2023/05/24 03:06:42;;;;;;;;;;;9.90;99.90;;;;;;4906416;29;19942;-75
2023/05/24 03:09:08;;;;;;;;;;;10.00;99.90;;;;;;4910264;29;19979;-76
2023/05/24 03:11:33;;;;;;;;;;;10.00;99.90;;;;;;4916918;29;19931;-75
2023/05/24 03:13:59;;;;;;;;;;;10.00;99.90;;;;;;4912667;29;19956;-75
2023/05/24 03:16:24;;;;;;;;;;;10.00;99.90;;;;;;4900489;29;19927;-76
2023/05/24 03:18:50;;;;;;;;;;;10.00;99.90;;;;;;4900130;29;20021;-76
2023/05/24 03:21:16;;;;;;;;;;;10.00;99.90;;;;;;4915260;29;20005;-75
2023/05/24 03:23:42;;;;;;;;;;;10.00;99.90;;;;;;4913389;29;19935;-77
2023/05/24 03:26:07;;;;;;;;;;;9.90;99.90;;;;;;4899004;29;20313;-76
2023/05/24 03:28:33;;;;;;;;;;;10.00;99.90;;;;;;4909118;29;19927;-75
2023/05/24 03:30:58;;;;;;;;;;;10.00;99.90;;;;;;4906689;29;20378;-76
2023/05/24 03:33:24;;;;;;;;;;;10.00;99.90;;;;;;4914542;29;19928;-76
2023/05/24 03:35:50;;;;;;;;;;;10.00;99.90;;;;;;4908917;29;20440;-75
2023/05/24 03:38:15;;;;;;;;;;;9.90;99.90;;;;;;4892991;29;20018;-75
2023/05/24 03:40:41;;;;;;;;;;;10.00;99.90;;;;;;4917180;29;19927;-76
2023/05/24 03:43:06;;;;;;;;;;;10.00;99.90;;;;;;4889167;29;19941;-75
2023/05/24 03:45:32;;;;;;;;;;;10.00;99.90;;;;;;4911118;29;19987;-75
2023/05/24 03:47:57;;;;;;;;;;;10.10;99.90;;;;;;4920550;29;19938;-76
2023/05/24 03:50:23;;;;;;;;;;;10.00;99.90;;;;;;4902185;29;19974;-76
2023/05/24 03:52:48;;;;;;;;;;;10.10;99.90;;;;;;4920577;29;19927;-76
2023/05/24 03:55:14;;;;;;;;;;;10.10;99.90;;;;;;4919986;29;19991;-76
2023/05/24 03:57:41;;;;;;;;;;;10.10;99.90;;;;;;4925723;29;19974;-76
2023/05/24 04:00:07;;;;;;;;;;;10.20;99.90;;;;;;4921372;29;19931;-78
2023/05/24 04:02:33;;;;;;;;;;;10.20;99.90;;;;;;4923700;29;19915;-75
2023/05/24 04:04:58;;;;;;;;;;;10.20;99.90;;;;;;4926313;29;19934;-77
2023/05/24 04:07:24;;;;;;;;;;;10.20;99.90;;;;;;4918768;29;19931;-76
2023/05/24 04:09:49;;;;;;;;;;;10.20;99.90;;;;;;4904241;29;20014;-76
2023/05/24 04:12:15;;;;;;;;;;;10.30;99.90;;;;;;4918231;29;19987;-76
2023/05/24 04:14:40;;;;;;;;;;;10.30;99.90;;;;;;4897420;29;19991;-76
2023/05/24 04:17:06;;;;;;;;;;;10.40;99.90;;;;;;4917527;29;19995;-78
2023/05/24 04:19:32;;;;;;;;;;;10.40;99.90;;;;;;4910361;29;19931;-77
2023/05/24 04:21:57;;;;;;;;;;;10.40;99.90;;;;;;4915794;29;19934;-76
2023/05/24 04:24:23;;;;;;;;;;;10.40;99.90;;;;;;4920219;29;19935;-75
2023/05/24 04:26:49;;;;;;;;;;;10.40;99.90;;;;;;4913885;29;19950;-77
2023/05/24 04:29:14;;;;;;;;;;;10.40;99.90;;;;;;4919803;29;20015;-77
2023/05/24 04:31:43;;;;;;;;;;;10.50;99.90;;;;;;4916769;29;19950;-77
2023/05/24 04:34:11;;;;;;;;;;;10.50;99.90;;;;;;4915647;29;19974;-76
2023/05/24 04:36:37;;;;;;;;;;;10.50;99.90;;;;;;4910364;29;19939;-76
2023/05/24 04:39:03;;;;;;;;;;;10.40;99.90;;;;;;4906426;29;19938;-76
2023/05/24 04:41:34;;;;;;;;;;;10.50;99.90;;;;;;4915327;29;19934;-76
2023/05/24 04:43:59;;;;;;;;;;;10.50;99.90;;;;;;4908718;29;20278;-77
2023/05/24 04:46:26;;;;;;;;;;;10.50;99.90;;;;;;4909993;29;19943;-77
2023/05/24 04:48:51;;;;;;;;;;;10.50;99.90;;;;;;4909384;29;19932;-77
2023/05/24 04:51:17;;;;;;;;;;;10.50;99.90;;;;;;4915058;29;20021;-78
2023/05/24 04:53:42;;;;;;;;;;;10.50;99.90;;;;;;4919759;29;19927;-76
2023/05/24 04:56:08;;;;;;;;;;;10.50;99.90;;;;;;4917181;29;20034;-76
2023/05/24 04:58:33;;;;;;;;;;;10.50;99.90;;;;;;4908267;29;19934;-76
2023/05/24 05:01:00;;;;;;;;;;;10.60;99.90;;;;;;4914567;29;19962;-78
2023/05/24 05:03:25;;;;;;;;;;;10.60;99.90;;;;;;4894728;29;19934;-78
2023/05/24 05:05:51;;;;;;;;;;;10.60;99.90;;;;;;4914210;29;20374;-76
2023/05/24 05:08:16;;;;;;;;;;;10.70;99.90;;;;;;4904315;29;19936;-77
2023/05/24 05:10:42;;;;;;;;;;;10.70;99.90;;;;;;4907952;29;19932;-76
2023/05/24 05:13:08;;;;;;;;;;;10.60;99.90;;;;;;4914590;29;19927;-77
2023/05/24 05:15:33;;;;;;;;;;;10.70;99.90;;;;;;4916939;29;19927;-76
2023/05/24 05:17:59;;;;;;;;;;;10.80;99.90;;;;;;4915903;29;19928;-76
2023/05/24 05:20:25;;;;;;;;;;;10.80;99.90;;;;;;4912831;29;20312;-76
2023/05/24 05:22:50;;;;;;;;;;;11.00;99.90;;;;;;4916528;29;20468;-76
2023/05/24 05:25:16;;;;;;;;;;;10.90;99.90;;;;;;4917146;29;19963;-77
2023/05/24 05:27:42;;;;;;;;;;;11.00;99.90;;;;;;4912578;29;19963;-76
2023/05/24 05:30:07;;;;;;;;;;;11.00;99.90;;;;;;4897400;29;20948;-76
2023/05/24 05:32:33;;;;;;;;;;;11.00;99.90;;;;;;4913553;29;19967;-76
2023/05/24 05:34:59;;;;;;;;;;;11.00;99.90;;;;;;4913996;29;19927;-77
2023/05/24 05:37:25;;;;;;;;;;;11.10;99.90;;;;;;4901373;29;20289;-76
2023/05/24 05:39:50;;;;;;;;;;;11.10;99.90;;;;;;4916489;29;20580;-76
2023/05/24 05:42:15;;;;;;;;;;;11.10;99.90;;;;;;4908718;29;19927;-76
2023/05/24 05:44:41;;;;;;;;;;;11.10;99.90;;;;;;4880790;29;19931;-75
2023/05/24 05:47:08;;;;;;;;;;;11.10;99.90;;;;;;4900534;29;20430;-76
2023/05/24 05:49:36;;;;;;;;;;;11.10;99.90;;;;;;4899498;29;20322;-74
2023/05/24 05:52:03;;;;;;;;;;;11.20;99.90;;;;;;4917948;29;19934;-75
2023/05/24 05:54:29;;;;;;;;;;;11.20;99.90;;;;;;4889635;29;19934;-75
2023/05/24 05:56:55;;;;;;;;;;;11.20;99.90;;;;;;4889317;29;20362;-76
2023/05/24 05:59:21;;;;;;;;;;;11.30;99.90;;;;;;4904784;29;20026;-76
2023/05/24 06:01:47;;;;;;;;;;;11.40;99.90;;;;;;4902750;29;19943;-76
2023/05/24 06:04:14;;;;;;;;;;;11.50;99.90;;;;;;4914198;29;19927;-75
2023/05/24 06:06:39;;;;;;;;;;;11.50;99.90;;;;;;4913921;29;19933;-76
2023/05/24 06:09:05;;;;;;;;;;;11.60;99.90;;;;;;4919105;29;19923;-76
2023/05/24 06:11:31;;;;;;;;;;;11.80;99.90;;;;;;4917402;29;19931;-77
2023/05/24 06:13:56;;;;;;;;;;;11.80;99.90;;;;;;4918102;29;19927;-76
2023/05/24 06:16:22;;;;;;;;;;;11.80;99.90;;;;;;4907836;29;20392;-77
2023/05/24 06:18:47;;;;;;;;;;;11.80;99.90;;;;;;4913476;29;19931;-77
2023/05/24 06:21:13;;;;;;;;;;;11.90;99.90;;;;;;4917844;29;20246;-77
2023/05/24 06:23:39;;;;;;;;;;;11.90;99.90;;;;;;4875314;29;20482;-76
2023/05/24 06:26:05;;;;;;;;;;;11.90;99.90;;;;;;4917438;29;19942;-77
2023/05/24 06:28:31;;;;;;;;;;;11.90;99.90;;;;;;4922638;29;20033;-79
2023/05/24 06:30:56;;;;;;;;;;;12.00;99.90;;;;;;4912456;29;20174;-77
2023/05/24 06:33:22;;;;;;;;;;;12.00;99.90;;;;;;4919976;29;19927;-77
2023/05/24 06:35:47;;;;;;;;;;;12.00;99.90;;;;;;4919456;29;20367;-77
2023/05/24 06:38:13;;;;;;;;;;;12.00;99.90;;;;;;4921300;29;19953;-77
2023/05/24 06:40:39;;;;;;;;;;;12.00;99.90;;;;;;4918016;29;19927;-77
2023/05/24 06:43:04;;;;;;;;;;;12.30;99.90;;;;;;4917251;29;19975;-77
2023/05/24 06:45:30;;;;;;;;;;;12.10;99.90;;;;;;4901886;29;19952;-76
2023/05/24 06:47:55;;;;;;;;;;;12.20;99.90;;;;;;4914847;29;20364;-76
2023/05/24 06:50:21;;;;;;;;;;;12.20;99.90;;;;;;4899383;29;20376;-76
2023/05/24 06:52:47;;;;;;;;;;;12.20;99.90;;;;;;4900262;29;20043;-76
2023/05/24 06:55:13;;;;;;;;;;;12.20;99.90;;;;;;4911513;29;19982;-77
2023/05/24 06:57:38;;;;;;;;;;;12.20;99.90;;;;;;4898815;29;19953;-77
2023/05/24 07:00:08;;;;;;;;;;;12.20;99.90;;;;;;4916854;29;19927;-77
2023/05/24 07:02:34;;;;;;;;;;;12.20;99.90;;;;;;4910344;29;19933;-77
2023/05/24 07:04:59;;;;;;;;;;;12.10;99.90;;;;;;4895451;29;19927;-77
2023/05/24 07:07:25;;;;;;;;;;;12.10;99.90;;;;;;4907015;29;19927;-76
2023/05/24 07:09:51;;;;;;;;;;;12.20;99.90;;;;;;4917270;29;20335;-77
2023/05/24 07:12:17;;;;;;;;;;;12.40;99.90;;;;;;4890294;29;19957;-77
2023/05/24 07:14:42;;;;;;;;;;;12.70;99.90;;;;;;4917011;29;19947;-78
2023/05/24 07:17:08;;;;;;;;;;;12.90;99.90;;;;;;4912835;29;19975;-77
2023/05/24 07:19:34;;;;;;;;;;;13.30;99.90;;;;;;4876161;29;19927;-77
2023/05/24 07:22:00;;;;;;;;;;;12.90;99.90;;;;;;4910746;29;19927;-76
2023/05/24 07:24:26;;;;;;;;;;;12.90;99.90;;;;;;4917912;29;20014;-76
2023/05/24 07:26:56;;;;;;;;;;;13.00;99.90;;;;;;4900778;29;19931;-77
2023/05/24 07:29:22;;;;;;;;;;;13.00;99.90;;;;;;4900868;29;19931;-76
2023/05/24 07:31:47;;;;;;;;;;;13.00;99.90;;;;;;4892956;29;19927;-78
2023/05/24 07:34:13;;;;;;;;;;;12.80;99.90;;;;;;4917223;29;20405;-78
2023/05/24 07:36:39;;;;;;;;;;;12.80;99.90;;;;;;4916624;29;19939;-76
2023/05/24 07:39:05;;;;;;;;;;;12.70;99.90;;;;;;4901986;29;19928;-76
2023/05/24 07:41:32;;;;;;;;;;;12.70;99.90;;;;;;4911012;29;19938;-76
2023/05/24 07:43:57;;;;;;;;;;;12.60;99.90;;;;;;4917220;29;19927;-77
2023/05/24 07:46:23;;;;;;;;;;;12.60;99.90;;;;;;4916756;29;19938;-77
2023/05/24 07:48:48;;;;;;;;;;;12.50;99.90;;;;;;4913821;29;19999;-76
2023/05/24 07:51:14;;;;;;;;;;;12.60;99.90;;;;;;4917761;29;19927;-76
2023/05/24 07:53:39;;;;;;;;;;;12.70;99.90;;;;;;4917684;29;19934;-77
2023/05/24 07:56:06;;;;;;;;;;;12.80;99.90;;;;;;4917237;29;19927;-77
2023/05/24 07:58:32;;;;;;;;;;;12.90;99.90;;;;;;4915404;29;19927;-77
2023/05/24 08:00:57;;;;;;;;;;;13.10;99.90;;;;;;4899342;29;20286;-77
2023/05/24 08:03:24;;;;;;;;;;;13.10;99.90;;;;;;4916956;29;20306;-76
2023/05/24 08:05:50;;;;;;;;;;;13.10;99.90;;;;;;4906936;29;19931;-77
2023/05/24 08:08:15;;;;;;;;;;;13.20;99.90;;;;;;4893335;29;20050;-77
2023/05/24 08:10:41;;;;;;;;;;;13.30;99.90;;;;;;4917277;29;20307;-77
2023/05/24 08:13:07;;;;;;;;;;;13.40;99.90;;;;;;4911646;29;20354;-77
2023/05/24 08:15:32;;;;;;;;;;;13.40;99.90;;;;;;4917210;29;19978;-77
2023/05/24 08:17:58;;;;;;;;;;;13.60;99.90;;;;;;4917800;29;20392;-77
2023/05/24 08:20:24;;;;;;;;;;;13.50;99.90;;;;;;4915915;29;19927;-77
2023/05/24 08:22:49;;;;;;;;;;;13.60;99.90;;;;;;4915705;29;20385;-77
2023/05/24 08:25:15;;;;;;;;;;;13.70;99.90;;;;;;4903965;29;19934;-76
2023/05/24 08:27:40;;;;;;;;;;;13.80;99.90;;;;;;4911457;29;20092;-77
2023/05/24 08:30:07;;;;;;;;;;;13.70;99.90;;;;;;4911153;29;19934;-77
2023/05/24 08:32:32;;;;;;;;;;;13.60;99.90;;;;;;4919147;29;20385;-77
2023/05/24 08:34:58;;;;;;;;;;;13.40;99.90;;;;;;4905484;29;19995;-76
2023/05/24 08:37:24;;;;;;;;;;;13.30;99.90;;;;;;4912943;29;19942;-76
2023/05/24 08:39:49;;;;;;;;;;;13.30;99.90;;;;;;4914791;29;19934;-76
2023/05/24 08:42:15;;;;;;;;;;;13.30;99.90;;;;;;4928154;29;19983;-76
2023/05/24 08:44:46;;;;;;;;;;;13.30;99.90;;;;;;4920019;29;19927;-77
2023/05/24 08:47:12;;;;;;;;;;;13.40;99.90;;;;;;4920691;29;19986;-77
2023/05/24 08:49:39;;;;;;;;;;;13.40;99.90;;;;;;4917298;29;19927;-76
2023/05/24 08:52:06;;;;;;;;;;;13.40;99.90;;;;;;4897263;29;19973;-77
2023/05/24 08:54:33;;;;;;;;;;;13.50;99.90;;;;;;4915856;29;19931;-77
2023/05/24 08:56:59;;;;;;;;;;;13.50;99.90;;;;;;4919130;29;19987;-76
2023/05/24 08:59:25;;;;;;;;;;;13.50;99.90;;;;;;4917086;29;20341;-77
2023/05/24 09:01:52;;;;;;;;;;;13.50;99.90;;;;;;4908467;29;20413;-77
2023/05/24 09:04:17;;;;;;;;;;;13.40;99.90;;;;;;4919202;29;19990;-76
2023/05/24 09:06:43;;;;;;;;;;;13.40;99.90;;;;;;4919044;29;19995;-76
2023/05/24 09:09:09;;;;;;;;;;;13.50;99.90;;;;;;4909026;29;19927;-77
2023/05/24 09:11:34;;;;;;;;;;;13.50;99.90;;;;;;4920127;29;19927;-76
2023/05/24 09:14:00;;;;;;;;;;;13.50;99.90;;;;;;4918955;29;20002;-77
2023/05/24 09:16:26;;;;;;;;;;;13.40;99.90;;;;;;4918928;29;19928;-77
2023/05/24 09:18:52;;;;;;;;;;;13.30;99.90;;;;;;4918835;29;20468;-77
2023/05/24 09:21:18;;;;;;;;;;;13.30;99.90;;;;;;4914655;29;19934;-77
2023/05/24 09:23:44;;;;;;;;;;;13.50;99.90;;;;;;4920770;29;19927;-76
2023/05/24 09:26:10;;;;;;;;;;;13.20;99.90;;;;;;4908728;29;19927;-76
2023/05/24 09:28:36;;;;;;;;;;;13.20;99.90;;;;;;4922710;29;20333;-77
2023/05/24 09:31:02;;;;;;;;;;;13.20;99.90;;;;;;4915923;29;19931;-77
2023/05/24 09:33:32;;;;;;;;;;;13.10;99.90;;;;;;4891451;29;20020;-77
2023/05/24 09:35:58;;;;;;;;;;;13.10;99.90;;;;;;4906139;29;19927;-77
2023/05/24 09:38:24;;;;;;;;;;;13.10;99.90;;;;;;4919810;29;19934;-77
2023/05/24 09:41:03;;;;;;;;;;;13.10;99.90;;;;;;4917072;29;20250;-76
2023/05/24 09:43:30;;;;;;;;;;;13.10;99.90;;;;;;4880660;29;19927;-77
2023/05/24 09:45:56;;;;;;;;;;;13.10;99.90;;;;;;4918736;29;19927;-77
2023/05/24 09:48:22;;;;;;;;;;;13.00;99.90;;;;;;4918270;29;20062;-77
2023/05/24 09:50:57;;;;;;;;;;;13.00;99.90;;;;;;4918317;29;20389;-77
2023/05/24 09:53:22;;;;;;;;;;;13.00;99.90;;;;;;4918654;29;20360;-77
2023/05/24 09:55:48;;;;;;;;;;;13.10;99.90;;;;;;4918775;29;19974;-76
2023/05/24 09:58:15;;;;;;;;;;;13.30;99.90;;;;;;4917839;29;19927;-76
2023/05/24 10:00:41;;;;;;;;;;;13.50;99.90;;;;;;4910150;29;19997;-77
2023/05/24 10:03:07;;;;;;;;;;;13.60;99.90;;;;;;4909511;29;20393;-77
2023/05/24 10:05:33;;;;;;;;;;;13.90;99.90;;;;;;4922139;29;19927;-76
2023/05/24 10:08:00;;;;;;;;;;;14.40;99.90;;;;;;4924157;29;20029;-77
2023/05/24 10:10:29;;;;;;;;;;;14.80;99.90;;;;;;4917433;29;19962;-77
2023/05/24 10:12:56;;;;;;;;;;;14.90;99.90;;;;;;4902374;29;20060;-77
2023/05/24 10:15:21;;;;;;;;;;;14.90;99.90;;;;;;4920297;29;19931;-77
2023/05/24 10:17:47;;;;;;;;;;;14.80;99.90;;;;;;4917773;29;19927;-76
2023/05/24 10:20:12;;;;;;;;;;;14.80;99.90;;;;;;4918801;29;20463;-76
2023/05/24 10:22:45;;;;;;;;;;;14.80;99.90;;;;;;4918084;29;19938;-77
2023/05/24 10:25:16;;;;;;;;;;;14.90;99.90;;;;;;4912489;29;19933;-76
2023/05/24 10:27:42;;;;;;;;;;;14.90;99.90;;;;;;4918433;29;20346;-76
2023/05/24 10:30:15;;;;;;;;;;;14.80;99.90;;;;;;4915274;29;19927;-76
2023/05/24 10:32:43;;;;;;;;;;;14.70;99.90;;;;;;4918370;29;20273;-76
2023/05/24 10:35:11;;;;;;;;;;;14.60;99.90;;;;;;4921061;29;19927;-75
2023/05/24 10:37:36;;;;;;;;;;;14.40;99.90;;;;;;4922633;29;19934;-77
2023/05/24 10:40:04;;;;;;;;;;;14.30;99.90;;;;;;4939080;29;19927;-76
2023/05/24 10:42:30;;;;;;;;;;;14.20;99.90;;;;;;4925375;29;19934;-76
2023/05/24 10:44:56;;;;;;;;;;;14.00;99.90;;;;;;4917246;29;19939;-76
2023/05/24 10:47:27;;;;;;;;;;;13.90;99.90;;;;;;4917471;29;19998;-76
2023/05/24 10:49:56;;;;;;;;;;;13.70;99.90;;;;;;4918833;29;20421;-76
2023/05/24 10:52:32;;;;;;;;;;;13.90;99.90;;;;;;4902391;29;19938;-76
2023/05/24 10:55:03;;;;;;;;;;;13.90;99.90;;;;;;4902271;29;19935;-77
2023/05/24 10:57:31;;;;;;;;;;;14.10;99.90;;;;;;4918454;29;20047;-75
2023/05/24 10:59:57;;;;;;;;;;;14.10;99.90;;;;;;4899624;29;20013;-75
2023/05/24 11:02:27;;;;;;;;;;;14.30;99.90;;;;;;4913469;29;20417;-75
2023/05/24 11:04:55;;;;;;;;;;;14.30;99.90;;;;;;4922277;29;20344;-76
2023/05/24 11:07:20;;;;;;;;;;;14.40;99.90;;;;;;4921668;29;20341;-76
2023/05/24 11:09:47;;;;;;;;;;;14.40;99.90;;;;;;4902601;29;20010;-76
2023/05/24 11:12:17;;;;;;;;;;;14.30;99.90;;;;;;4893886;29;19936;-75
2023/05/24 11:14:46;;;;;;;;;;;14.30;99.90;;;;;;4898537;29;19927;-76
2023/05/24 11:17:12;;;;;;;;;;;14.20;99.90;;;;;;4910966;29;19939;-76
2023/05/24 11:19:44;;;;;;;;;;;14.10;99.90;;;;;;4917411;29;19951;-75
2023/05/24 11:22:12;;;;;;;;;;;14.00;99.90;;;;;;4918518;29;19923;-77
2023/05/24 11:24:39;;;;;;;;;;;14.30;99.90;;;;;;4903173;29;19927;-76
2023/05/24 11:27:04;;;;;;;;;;;14.60;99.90;;;;;;4909896;29;20345;-77
2023/05/24 11:29:30;;;;;;;;;;;14.70;99.90;;;;;;4908247;29;19928;-77
2023/05/24 11:32:01;;;;;;;;;;;14.80;99.90;;;;;;4905818;29;19958;-76
2023/05/24 11:34:26;;;;;;;;;;;15.00;99.90;;;;;;4921231;29;19934;-76
2023/05/24 11:36:53;;;;;;;;;;;15.00;99.90;;;;;;4919959;29;19927;-76
2023/05/24 11:39:19;;;;;;;;;;;14.90;99.90;;;;;;4907636;29;19956;-76
2023/05/24 11:41:46;;;;;;;;;;;14.80;99.90;;;;;;4911579;29;19931;-76
2023/05/24 11:44:15;;;;;;;;;;;14.70;99.90;;;;;;4920994;29;20009;-77
2023/05/24 11:46:42;;;;;;;;;;;14.70;99.90;;;;;;4918782;29;19923;-76
2023/05/24 11:49:11;;;;;;;;;;;14.50;99.90;;;;;;4890976;29;19936;-76
2023/05/24 11:51:36;;;;;;;;;;;14.50;99.90;;;;;;4893061;29;19927;-77
2023/05/24 11:54:02;;;;;;;;;;;14.50;99.90;;;;;;4866608;29;19928;-77
2023/05/24 11:56:28;;;;;;;;;;;14.40;99.90;;;;;;4912700;29;19927;-76
2023/05/24 11:58:59;;;;;;;;;;;14.40;99.90;;;;;;4917646;29;19927;-76
2023/05/24 12:01:26;;;;;;;;;;;14.30;99.90;;;;;;4911497;29;19967;-75
2023/05/24 12:03:52;;;;;;;;;;;14.50;99.90;;;;;;4916786;29;19931;-76
2023/05/24 12:06:18;;;;;;;;;;;14.20;99.90;;;;;;4921108;29;19928;-76
2023/05/24 12:08:43;;;;;;;;;;;14.10;99.90;;;;;;4920758;29;20284;-77
2023/05/24 12:11:09;;;;;;;;;;;14.00;99.90;;;;;;4902309;29;20382;-76
2023/05/24 12:13:35;;;;;;;;;;;14.10;99.90;;;;;;4907780;29;19927;-76
2023/05/24 12:16:01;;;;;;;;;;;14.20;99.90;;;;;;4921952;29;20025;-77
2023/05/24 12:18:27;;;;;;;;;;;14.20;99.90;;;;;;4921509;29;20022;-76
2023/05/24 12:20:53;;;;;;;;;;;14.20;99.90;;;;;;4920695;29;20289;-76
2023/05/24 12:23:20;;;;;;;;;;;14.20;99.90;;;;;;4904238;29;19923;-76
2023/05/24 12:25:46;;;;;;;;;;;14.10;99.90;;;;;;4901865;29;19928;-77
2023/05/24 12:28:11;;;;;;;;;;;14.10;99.90;;;;;;4915106;29;19931;-76
2023/05/24 12:30:41;;;;;;;;;;;14.10;99.90;;;;;;4915653;29;19928;-76
2023/05/24 12:33:08;;;;;;;;;;;14.10;99.90;;;;;;4903271;29;19934;-76
2023/05/24 12:35:33;;;;;;;;;;;14.20;99.90;;;;;;4918928;29;19927;-76
2023/05/24 12:37:59;;;;;;;;;;;14.20;99.90;;;;;;4918182;29;19942;-75
2023/05/24 12:40:24;;;;;;;;;;;14.10;99.90;;;;;;4911909;29;19927;-75
2023/05/24 12:42:52;;;;;;;;;;;14.10;99.90;;;;;;4913484;29;19927;-74
2023/05/24 12:45:21;;;;;;;;;;;14.10;99.90;;;;;;4919921;29;19940;-76
2023/05/24 12:48:07;;;;;;;;;;;14.20;99.90;;;;;;4919347;29;19934;-75
2023/05/24 12:50:33;;;;;;;;;;;14.20;99.90;;;;;;4915473;29;19959;-77
2023/05/24 12:52:59;;;;;;;;;;;14.20;99.90;;;;;;4903766;29;19927;-76
2023/05/24 12:55:25;;;;;;;;;;;14.30;99.90;;;;;;4904426;29;19927;-76
2023/05/24 12:57:53;;;;;;;;;;;14.60;99.90;;;;;;4893519;29;20386;-77
2023/05/24 13:00:21;;;;;;;;;;;15.10;99.90;;;;;;4893987;29;19927;-77
2023/05/24 13:02:47;;;;;;;;;;;15.50;99.90;;;;;;4919863;29;19934;-78
2023/05/24 13:05:13;;;;;;;;;;;15.70;99.90;;;;;;4905541;29;20010;-77
2023/05/24 13:07:38;;;;;;;;;;;15.70;99.90;;;;;;4910753;29;19928;-77
2023/05/24 13:10:05;;;;;;;;;;;15.40;99.90;;;;;;4903504;29;19975;-77
2023/05/24 13:12:31;;;;;;;;;;;15.20;99.90;;;;;;4910134;29;19927;-77
2023/05/24 13:14:56;;;;;;;;;;;15.00;99.90;;;;;;4929562;29;20369;-77
2023/05/24 13:17:22;;;;;;;;;;;14.90;99.90;;;;;;4900907;29;19927;-77
2023/05/24 13:19:48;;;;;;;;;;;14.80;99.90;;;;;;4920336;29;19978;-77
2023/05/24 13:22:14;;;;;;;;;;;14.70;99.90;;;;;;4921577;29;20297;-77
2023/05/24 13:24:39;;;;;;;;;;;14.80;99.90;;;;;;4922604;29;20026;-77
2023/05/24 13:27:05;;;;;;;;;;;14.80;99.90;;;;;;4917327;29;19931;-76
2023/05/24 13:29:31;;;;;;;;;;;14.70;99.90;;;;;;4916001;29;19927;-77
2023/05/24 13:31:56;;;;;;;;;;;14.60;99.90;;;;;;4920740;29;19950;-77
2023/05/24 13:34:24;;;;;;;;;;;14.50;99.90;;;;;;4925257;29;19939;-77
2023/05/24 13:36:50;;;;;;;;;;;14.40;99.90;;;;;;4909126;29;19933;-76
2023/05/24 13:39:16;;;;;;;;;;;14.30;99.90;;;;;;4921333;29;19995;-78
2023/05/24 13:41:42;;;;;;;;;;;14.40;99.90;;;;;;4920090;29;19970;-76
2023/05/24 13:44:07;;;;;;;;;;;14.60;99.90;;;;;;4926212;29;19927;-78
2023/05/24 13:46:33;;;;;;;;;;;14.80;99.90;;;;;;4914678;29;19985;-77
2023/05/24 13:48:58;;;;;;;;;;;14.90;99.90;;;;;;4910350;29;20419;-77
2023/05/24 13:51:25;;;;;;;;;;;14.80;99.90;;;;;;4920241;29;19928;-77
2023/05/24 13:53:51;;;;;;;;;;;14.70;99.90;;;;;;4917809;29;19927;-76
2023/05/24 13:56:17;;;;;;;;;;;14.90;99.90;;;;;;4915776;29;19986;-77
2023/05/24 13:58:43;;;;;;;;;;;15.00;99.90;;;;;;4929514;29;19978;-77
2023/05/24 14:01:08;;;;;;;;;;;15.20;99.90;;;;;;4921921;29;19928;-77
2023/05/24 14:03:34;;;;;;;;;;;15.70;99.90;;;;;;4906753;29;19943;-77
2023/05/24 14:06:00;;;;;;;;;;;16.10;99.90;;;;;;4919443;29;19930;-76
2023/05/24 14:08:25;;;;;;;;;;;16.70;99.90;;;;;;4915729;29;19955;-77
2023/05/24 14:10:52;;;;;;;;;;;17.10;99.90;;;;;;4923832;29;19931;-77
2023/05/24 14:13:18;;;;;;;;;;;17.40;99.90;;;;;;4921687;29;19927;-77
2023/05/24 14:15:45;;;;;;;;;;;17.70;99.90;;;;;;4929834;29;19934;-77
2023/05/24 14:18:11;;;;;;;;;;;17.70;99.90;;;;;;4935464;29;19927;-77